sensor_id;sensor_type;location;lat;lon;timestamp;P1;durP1;ratioP1;P2;durP2;ratioP2
8279;SDS011;8335;42.646;23.380;2022-08-04T00:00:30;4.70;;;4.28;;
8279;SDS011;8335;42.646;23.380;2022-08-04T00:03:08;3.95;;;3.65;;
8279;SDS011;8335;42.646;23.380;2022-08-04T00:05:48;6.65;;;4.25;;
8279;SDS011;8335;42.646;23.380;2022-08-04T00:08:25;7.20;;;4.25;;
8279;SDS011;8335;42.646;23.380;2022-08-04T00:11:07;7.75;;;4.18;;
8279;SDS011;8335;42.646;23.380;2022-08-04T00:13:37;4.40;;;4.00;;
8279;SDS011;8335;42.646;23.380;2022-08-04T00:16:05;5.53;;;4.47;;
8279;SDS011;8335;42.646;23.380;2022-08-04T00:18:40;7.10;;;4.20;;
8279;SDS011;8335;42.646;23.380;2022-08-04T00:21:11;5.00;;;4.43;;
8279;SDS011;8335;42.646;23.380;2022-08-04T00:23:42;6.10;;;4.20;;
8279;SDS011;8335;42.646;23.380;2022-08-04T00:26:09;11.45;;;4.45;;
8279;SDS011;8335;42.646;23.380;2022-08-04T00:28:38;4.97;;;4.18;;
8279;SDS011;8335;42.646;23.380;2022-08-04T00:31:07;5.20;;;4.15;;
8279;SDS011;8335;42.646;23.380;2022-08-04T00:33:35;4.10;;;3.70;;
8279;SDS011;8335;42.646;23.380;2022-08-04T00:36:03;6.80;;;4.32;;
8279;SDS011;8335;42.646;23.380;2022-08-04T00:38:30;4.63;;;4.10;;
8279;SDS011;8335;42.646;23.380;2022-08-04T00:41:01;7.03;;;4.10;;
8279;SDS011;8335;42.646;23.380;2022-08-04T00:43:35;5.97;;;4.40;;
8279;SDS011;8335;42.646;23.380;2022-08-04T00:46:25;4.60;;;4.07;;
8279;SDS011;8335;42.646;23.380;2022-08-04T00:49:14;4.63;;;4.03;;
8279;SDS011;8335;42.646;23.380;2022-08-04T00:52:12;7.40;;;4.30;;
8279;SDS011;8335;42.646;23.380;2022-08-04T00:54:58;7.63;;;4.57;;
8279;SDS011;8335;42.646;23.380;2022-08-04T00:57:48;4.95;;;4.00;;
8279;SDS011;8335;42.646;23.380;2022-08-04T01:00:24;7.97;;;4.47;;
8279;SDS011;8335;42.646;23.380;2022-08-04T01:02:56;4.80;;;4.40;;
8279;SDS011;8335;42.646;23.380;2022-08-04T01:05:37;5.32;;;4.20;;
8279;SDS011;8335;42.646;23.380;2022-08-04T01:08:23;6.88;;;4.07;;
8279;SDS011;8335;42.646;23.380;2022-08-04T01:11:12;6.32;;;4.10;;
8279;SDS011;8335;42.646;23.380;2022-08-04T01:13:57;4.80;;;4.40;;
8279;SDS011;8335;42.646;23.380;2022-08-04T01:16:34;8.23;;;4.53;;
8279;SDS011;8335;42.646;23.380;2022-08-04T01:19:07;6.37;;;4.67;;
8279;SDS011;8335;42.646;23.380;2022-08-04T01:25:02;9.77;;;5.05;;
8279;SDS011;8335;42.646;23.380;2022-08-04T01:27:53;4.78;;;4.38;;
8279;SDS011;8335;42.646;23.380;2022-08-04T01:30:37;4.65;;;4.25;;
8279;SDS011;8335;42.646;23.380;2022-08-04T01:33:08;6.30;;;5.70;;
8279;SDS011;8335;42.646;23.380;2022-08-04T01:35:41;8.60;;;5.45;;
8279;SDS011;8335;42.646;23.380;2022-08-04T01:38:15;7.35;;;5.60;;
8279;SDS011;8335;42.646;23.380;2022-08-04T01:40:43;7.77;;;4.77;;
8279;SDS011;8335;42.646;23.380;2022-08-04T01:43:11;7.20;;;4.90;;
8279;SDS011;8335;42.646;23.380;2022-08-04T01:45:40;6.40;;;5.00;;
8279;SDS011;8335;42.646;23.380;2022-08-04T01:48:07;7.00;;;4.82;;
8279;SDS011;8335;42.646;23.380;2022-08-04T01:50:37;6.00;;;5.40;;
8279;SDS011;8335;42.646;23.380;2022-08-04T01:53:04;5.05;;;4.53;;
8279;SDS011;8335;42.646;23.380;2022-08-04T01:55:31;5.13;;;4.05;;
8279;SDS011;8335;42.646;23.380;2022-08-04T01:57:59;7.25;;;4.47;;
8279;SDS011;8335;42.646;23.380;2022-08-04T02:00:27;4.53;;;4.13;;
8279;SDS011;8335;42.646;23.380;2022-08-04T02:02:56;7.57;;;4.32;;
8279;SDS011;8335;42.646;23.380;2022-08-04T02:05:23;6.67;;;4.33;;
8279;SDS011;8335;42.646;23.380;2022-08-04T02:08:00;4.72;;;4.25;;
8279;SDS011;8335;42.646;23.380;2022-08-04T02:10:34;5.20;;;4.50;;
8279;SDS011;8335;42.646;23.380;2022-08-04T02:13:22;4.83;;;4.43;;
8279;SDS011;8335;42.646;23.380;2022-08-04T02:15:56;4.47;;;4.07;;
8279;SDS011;8335;42.646;23.380;2022-08-04T02:18:29;5.37;;;3.87;;
8279;SDS011;8335;42.646;23.380;2022-08-04T02:20:57;4.00;;;3.63;;
8279;SDS011;8335;42.646;23.380;2022-08-04T02:23:30;6.30;;;4.50;;
8279;SDS011;8335;42.646;23.380;2022-08-04T02:26:02;6.30;;;4.20;;
8279;SDS011;8335;42.646;23.380;2022-08-04T02:28:32;4.95;;;4.50;;
8279;SDS011;8335;42.646;23.380;2022-08-04T02:31:07;4.67;;;3.83;;
8279;SDS011;8335;42.646;23.380;2022-08-04T02:34:00;8.50;;;4.32;;
8279;SDS011;8335;42.646;23.380;2022-08-04T02:36:34;10.18;;;5.72;;
8279;SDS011;8335;42.646;23.380;2022-08-04T02:39:03;6.70;;;4.30;;
8279;SDS011;8335;42.646;23.380;2022-08-04T02:41:31;4.90;;;4.50;;
8279;SDS011;8335;42.646;23.380;2022-08-04T02:44:00;4.90;;;4.47;;
8279;SDS011;8335;42.646;23.380;2022-08-04T02:46:29;4.90;;;4.50;;
8279;SDS011;8335;42.646;23.380;2022-08-04T02:49:00;6.50;;;4.80;;
8279;SDS011;8335;42.646;23.380;2022-08-04T02:51:29;4.90;;;4.50;;
8279;SDS011;8335;42.646;23.380;2022-08-04T02:53:59;9.60;;;4.67;;
8279;SDS011;8335;42.646;23.380;2022-08-04T02:56:28;4.80;;;4.30;;
8279;SDS011;8335;42.646;23.380;2022-08-04T02:58:58;5.57;;;4.93;;
8279;SDS011;8335;42.646;23.380;2022-08-04T03:01:26;4.87;;;4.47;;
8279;SDS011;8335;42.646;23.380;2022-08-04T03:03:56;5.83;;;4.70;;
8279;SDS011;8335;42.646;23.380;2022-08-04T03:06:49;5.10;;;4.60;;
8279;SDS011;8335;42.646;23.380;2022-08-04T03:18:51;7.67;;;4.90;;
8279;SDS011;8335;42.646;23.380;2022-08-04T03:25:08;5.10;;;4.60;;
8279;SDS011;8335;42.646;23.380;2022-08-04T03:30:57;5.20;;;4.70;;
8279;SDS011;8335;42.646;23.380;2022-08-04T03:39:43;4.85;;;4.35;;
8279;SDS011;8335;42.646;23.380;2022-08-04T03:42:36;6.45;;;4.20;;
8279;SDS011;8335;42.646;23.380;2022-08-04T03:51:11;7.63;;;4.50;;
8279;SDS011;8335;42.646;23.380;2022-08-04T03:57:09;4.77;;;4.37;;
8279;SDS011;8335;42.646;23.380;2022-08-04T03:59:58;4.53;;;4.13;;
8279;SDS011;8335;42.646;23.380;2022-08-04T04:05:40;4.95;;;4.45;;
8279;SDS011;8335;42.646;23.380;2022-08-04T04:11:37;5.68;;;4.60;;
8279;SDS011;8335;42.646;23.380;2022-08-04T04:14:17;4.45;;;3.90;;
8279;SDS011;8335;42.646;23.380;2022-08-04T04:17:11;5.55;;;4.00;;
8279;SDS011;8335;42.646;23.380;2022-08-04T04:19:53;6.20;;;4.07;;
8279;SDS011;8335;42.646;23.380;2022-08-04T04:22:53;4.97;;;3.58;;
8279;SDS011;8335;42.646;23.380;2022-08-04T04:28:27;4.78;;;3.75;;
8279;SDS011;8335;42.646;23.380;2022-08-04T04:31:07;4.45;;;3.85;;
8279;SDS011;8335;42.646;23.380;2022-08-04T04:33:57;6.15;;;3.80;;
8279;SDS011;8335;42.646;23.380;2022-08-04T04:36:45;4.43;;;3.83;;
8279;SDS011;8335;42.646;23.380;2022-08-04T04:39:19;5.53;;;3.75;;
8279;SDS011;8335;42.646;23.380;2022-08-04T04:42:14;5.55;;;3.67;;
8279;SDS011;8335;42.646;23.380;2022-08-04T04:45:02;4.55;;;3.78;;
8279;SDS011;8335;42.646;23.380;2022-08-04T04:47:41;4.60;;;4.10;;
8279;SDS011;8335;42.646;23.380;2022-08-04T04:50:22;18.98;;;3.88;;
8279;SDS011;8335;42.646;23.380;2022-08-04T04:53:01;3.53;;;3.22;;
8279;SDS011;8335;42.646;23.380;2022-08-04T04:55:32;4.18;;;3.72;;
8279;SDS011;8335;42.646;23.380;2022-08-04T04:58:05;3.88;;;3.00;;
8279;SDS011;8335;42.646;23.380;2022-08-04T05:00:42;6.35;;;4.10;;
8279;SDS011;8335;42.646;23.380;2022-08-04T05:03:26;4.40;;;4.00;;
8279;SDS011;8335;42.646;23.380;2022-08-04T05:06:09;4.05;;;3.63;;
8279;SDS011;8335;42.646;23.380;2022-08-04T05:08:52;8.77;;;3.97;;
8279;SDS011;8335;42.646;23.380;2022-08-04T05:14:32;4.40;;;4.00;;
8279;SDS011;8335;42.646;23.380;2022-08-04T05:17:03;5.38;;;3.70;;
8279;SDS011;8335;42.646;23.380;2022-08-04T05:19:42;5.03;;;4.43;;
8279;SDS011;8335;42.646;23.380;2022-08-04T05:22:18;4.07;;;3.70;;
8279;SDS011;8335;42.646;23.380;2022-08-04T05:24:50;4.63;;;3.92;;
8279;SDS011;8335;42.646;23.380;2022-08-04T05:27:27;6.28;;;4.15;;
8279;SDS011;8335;42.646;23.380;2022-08-04T05:30:01;5.20;;;4.13;;
8279;SDS011;8335;42.646;23.380;2022-08-04T05:32:30;6.15;;;3.90;;
8279;SDS011;8335;42.646;23.380;2022-08-04T05:35:04;5.35;;;4.13;;
8279;SDS011;8335;42.646;23.380;2022-08-04T05:37:36;6.35;;;4.07;;
8279;SDS011;8335;42.646;23.380;2022-08-04T05:40:06;4.50;;;3.78;;
8279;SDS011;8335;42.646;23.380;2022-08-04T05:42:35;3.88;;;3.50;;
8279;SDS011;8335;42.646;23.380;2022-08-04T05:45:03;4.45;;;3.90;;
8279;SDS011;8335;42.646;23.380;2022-08-04T05:47:32;5.13;;;3.55;;
8279;SDS011;8335;42.646;23.380;2022-08-04T05:50:02;6.03;;;3.65;;
8279;SDS011;8335;42.646;23.380;2022-08-04T05:52:31;4.95;;;4.07;;
8279;SDS011;8335;42.646;23.380;2022-08-04T05:55:02;7.82;;;4.20;;
8279;SDS011;8335;42.646;23.380;2022-08-04T05:57:30;9.30;;;3.80;;
8279;SDS011;8335;42.646;23.380;2022-08-04T05:59:59;5.55;;;3.65;;
8279;SDS011;8335;42.646;23.380;2022-08-04T06:02:29;5.68;;;3.80;;
8279;SDS011;8335;42.646;23.380;2022-08-04T06:04:56;6.32;;;3.97;;
8279;SDS011;8335;42.646;23.380;2022-08-04T06:07:25;8.65;;;3.80;;
8279;SDS011;8335;42.646;23.380;2022-08-04T06:09:52;4.82;;;3.58;;
8279;SDS011;8335;42.646;23.380;2022-08-04T06:12:22;5.90;;;3.85;;
8279;SDS011;8335;42.646;23.380;2022-08-04T06:14:53;5.82;;;3.90;;
8279;SDS011;8335;42.646;23.380;2022-08-04T06:17:23;6.63;;;3.72;;
8279;SDS011;8335;42.646;23.380;2022-08-04T06:19:55;4.55;;;4.00;;
8279;SDS011;8335;42.646;23.380;2022-08-04T06:22:22;5.65;;;4.10;;
8279;SDS011;8335;42.646;23.380;2022-08-04T06:24:50;6.97;;;3.85;;
8279;SDS011;8335;42.646;23.380;2022-08-04T06:27:21;7.35;;;4.22;;
8279;SDS011;8335;42.646;23.380;2022-08-04T06:29:48;9.15;;;4.05;;
8279;SDS011;8335;42.646;23.380;2022-08-04T06:32:18;7.97;;;4.18;;
8279;SDS011;8335;42.646;23.380;2022-08-04T06:34:53;7.50;;;4.03;;
8279;SDS011;8335;42.646;23.380;2022-08-04T06:37:22;7.07;;;4.40;;
8279;SDS011;8335;42.646;23.380;2022-08-04T06:39:50;4.95;;;4.00;;
8279;SDS011;8335;42.646;23.380;2022-08-04T06:42:18;5.53;;;3.70;;
8279;SDS011;8335;42.646;23.380;2022-08-04T06:44:50;6.30;;;4.05;;
8279;SDS011;8335;42.646;23.380;2022-08-04T06:47:19;10.55;;;4.18;;
8279;SDS011;8335;42.646;23.380;2022-08-04T06:49:47;7.70;;;3.83;;
8279;SDS011;8335;42.646;23.380;2022-08-04T06:52:16;7.13;;;3.88;;
8279;SDS011;8335;42.646;23.380;2022-08-04T06:54:45;6.15;;;3.78;;
8279;SDS011;8335;42.646;23.380;2022-08-04T06:57:13;7.50;;;3.80;;
8279;SDS011;8335;42.646;23.380;2022-08-04T06:59:49;7.40;;;4.28;;
8279;SDS011;8335;42.646;23.380;2022-08-04T07:02:20;9.25;;;4.15;;
8279;SDS011;8335;42.646;23.380;2022-08-04T07:04:52;6.97;;;5.05;;
8279;SDS011;8335;42.646;23.380;2022-08-04T07:07:19;12.10;;;5.53;;
8279;SDS011;8335;42.646;23.380;2022-08-04T07:09:48;8.43;;;5.80;;
8279;SDS011;8335;42.646;23.380;2022-08-04T07:12:16;9.85;;;5.25;;
8279;SDS011;8335;42.646;23.380;2022-08-04T07:14:45;7.30;;;4.97;;
8279;SDS011;8335;42.646;23.380;2022-08-04T07:17:14;8.52;;;5.15;;
8279;SDS011;8335;42.646;23.380;2022-08-04T07:19:42;8.23;;;5.70;;
8279;SDS011;8335;42.646;23.380;2022-08-04T07:22:09;7.80;;;5.60;;
8279;SDS011;8335;42.646;23.380;2022-08-04T07:24:37;10.02;;;5.03;;
8279;SDS011;8335;42.646;23.380;2022-08-04T07:27:04;8.75;;;5.10;;
8279;SDS011;8335;42.646;23.380;2022-08-04T07:29:32;7.55;;;5.15;;
8279;SDS011;8335;42.646;23.380;2022-08-04T07:31:59;9.88;;;5.28;;
8279;SDS011;8335;42.646;23.380;2022-08-04T07:34:29;9.38;;;5.00;;
8279;SDS011;8335;42.646;23.380;2022-08-04T07:36:57;9.55;;;5.38;;
8279;SDS011;8335;42.646;23.380;2022-08-04T07:39:26;9.13;;;5.00;;
8279;SDS011;8335;42.646;23.380;2022-08-04T07:41:56;7.25;;;5.15;;
8279;SDS011;8335;42.646;23.380;2022-08-04T07:44:24;7.57;;;5.53;;
8279;SDS011;8335;42.646;23.380;2022-08-04T07:46:51;7.68;;;5.88;;
8279;SDS011;8335;42.646;23.380;2022-08-04T07:49:18;8.48;;;5.97;;
8279;SDS011;8335;42.646;23.380;2022-08-04T07:51:47;7.50;;;4.68;;
8279;SDS011;8335;42.646;23.380;2022-08-04T07:54:15;8.98;;;5.25;;
8279;SDS011;8335;42.646;23.380;2022-08-04T07:56:43;9.43;;;5.47;;
8279;SDS011;8335;42.646;23.380;2022-08-04T07:59:13;13.40;;;5.50;;
8279;SDS011;8335;42.646;23.380;2022-08-04T08:01:39;7.93;;;5.32;;
8279;SDS011;8335;42.646;23.380;2022-08-04T08:04:07;11.20;;;5.90;;
8279;SDS011;8335;42.646;23.380;2022-08-04T08:06:36;7.53;;;5.13;;
8279;SDS011;8335;42.646;23.380;2022-08-04T08:09:09;10.48;;;6.03;;
8279;SDS011;8335;42.646;23.380;2022-08-04T08:11:37;9.00;;;5.18;;
8279;SDS011;8335;42.646;23.380;2022-08-04T08:14:04;10.98;;;6.22;;
8279;SDS011;8335;42.646;23.380;2022-08-04T08:16:32;10.50;;;6.70;;
8279;SDS011;8335;42.646;23.380;2022-08-04T08:18:59;10.52;;;5.40;;
8279;SDS011;8335;42.646;23.380;2022-08-04T08:21:26;10.10;;;5.50;;
8279;SDS011;8335;42.646;23.380;2022-08-04T08:23:54;12.98;;;5.93;;
8279;SDS011;8335;42.646;23.380;2022-08-04T08:26:23;9.60;;;5.57;;
8279;SDS011;8335;42.646;23.380;2022-08-04T08:28:50;8.32;;;5.45;;
8279;SDS011;8335;42.646;23.380;2022-08-04T08:31:16;8.57;;;5.50;;
8279;SDS011;8335;42.646;23.380;2022-08-04T08:33:44;9.23;;;5.20;;
8279;SDS011;8335;42.646;23.380;2022-08-04T08:36:15;9.73;;;5.25;;
8279;SDS011;8335;42.646;23.380;2022-08-04T08:38:48;7.53;;;4.97;;
8279;SDS011;8335;42.646;23.380;2022-08-04T08:41:28;8.88;;;5.10;;
8279;SDS011;8335;42.646;23.380;2022-08-04T08:47:15;5.85;;;4.90;;
8279;SDS011;8335;42.646;23.380;2022-08-04T08:50:03;13.75;;;4.28;;
8279;SDS011;8335;42.646;23.380;2022-08-04T08:52:51;7.95;;;3.78;;
8279;SDS011;8335;42.646;23.380;2022-08-04T08:55:30;6.75;;;4.20;;
8279;SDS011;8335;42.646;23.380;2022-08-04T08:58:19;6.75;;;3.72;;
8279;SDS011;8335;42.646;23.380;2022-08-04T09:00:55;4.40;;;3.47;;
8279;SDS011;8335;42.646;23.380;2022-08-04T09:03:37;4.63;;;3.00;;
8279;SDS011;8335;42.646;23.380;2022-08-04T09:12:27;5.43;;;3.45;;
8279;SDS011;8335;42.646;23.380;2022-08-04T09:15:02;5.90;;;3.45;;
8279;SDS011;8335;42.646;23.380;2022-08-04T09:17:34;5.88;;;3.70;;
8279;SDS011;8335;42.646;23.380;2022-08-04T09:20:06;7.50;;;3.50;;
8279;SDS011;8335;42.646;23.380;2022-08-04T09:22:41;6.15;;;3.22;;
8279;SDS011;8335;42.646;23.380;2022-08-04T09:25:15;5.38;;;3.47;;
8279;SDS011;8335;42.646;23.380;2022-08-04T09:27:50;6.10;;;3.60;;
8279;SDS011;8335;42.646;23.380;2022-08-04T09:30:20;5.03;;;3.42;;
8279;SDS011;8335;42.646;23.380;2022-08-04T09:33:09;4.40;;;3.05;;
8279;SDS011;8335;42.646;23.380;2022-08-04T09:35:46;4.22;;;3.00;;
8279;SDS011;8335;42.646;23.380;2022-08-04T09:38:22;4.90;;;3.42;;
8279;SDS011;8335;42.646;23.380;2022-08-04T09:40:57;5.43;;;3.45;;
8279;SDS011;8335;42.646;23.380;2022-08-04T09:43:31;6.38;;;3.08;;
8279;SDS011;8335;42.646;23.380;2022-08-04T09:46:05;5.90;;;2.75;;
8279;SDS011;8335;42.646;23.380;2022-08-04T09:48:40;4.65;;;2.53;;
8279;SDS011;8335;42.646;23.380;2022-08-04T09:51:14;7.13;;;2.70;;
8279;SDS011;8335;42.646;23.380;2022-08-04T09:53:52;5.13;;;3.03;;
8279;SDS011;8335;42.646;23.380;2022-08-04T09:56:27;3.50;;;3.13;;
8279;SDS011;8335;42.646;23.380;2022-08-04T09:59:03;8.98;;;3.30;;
8279;SDS011;8335;42.646;23.380;2022-08-04T10:01:50;5.30;;;3.10;;
8279;SDS011;8335;42.646;23.380;2022-08-04T10:04:21;4.32;;;3.42;;
8279;SDS011;8335;42.646;23.380;2022-08-04T10:06:56;8.18;;;3.58;;
8279;SDS011;8335;42.646;23.380;2022-08-04T10:09:46;5.82;;;3.28;;
8279;SDS011;8335;42.646;23.380;2022-08-04T10:12:26;4.50;;;3.17;;
8279;SDS011;8335;42.646;23.380;2022-08-04T10:15:08;4.30;;;3.05;;
8279;SDS011;8335;42.646;23.380;2022-08-04T10:17:55;3.20;;;2.90;;
8279;SDS011;8335;42.646;23.380;2022-08-04T10:20:36;3.22;;;2.92;;
8279;SDS011;8335;42.646;23.380;2022-08-04T10:23:11;4.88;;;3.80;;
8279;SDS011;8335;42.646;23.380;2022-08-04T10:25:47;6.65;;;4.20;;
8279;SDS011;8335;42.646;23.380;2022-08-04T10:28:19;7.80;;;4.25;;
8279;SDS011;8335;42.646;23.380;2022-08-04T10:30:49;6.82;;;4.32;;
8279;SDS011;8335;42.646;23.380;2022-08-04T10:33:23;6.85;;;4.72;;
8279;SDS011;8335;42.646;23.380;2022-08-04T10:35:58;8.25;;;4.40;;
8279;SDS011;8335;42.646;23.380;2022-08-04T10:38:28;9.75;;;4.47;;
8279;SDS011;8335;42.646;23.380;2022-08-04T10:40:57;7.82;;;4.45;;
8279;SDS011;8335;42.646;23.380;2022-08-04T10:43:30;6.07;;;4.00;;
8279;SDS011;8335;42.646;23.380;2022-08-04T10:46:06;8.23;;;4.18;;
8279;SDS011;8335;42.646;23.380;2022-08-04T10:48:40;4.68;;;3.97;;
8279;SDS011;8335;42.646;23.380;2022-08-04T10:51:16;6.45;;;3.63;;
8279;SDS011;8335;42.646;23.380;2022-08-04T10:53:50;7.47;;;3.60;;
8279;SDS011;8335;42.646;23.380;2022-08-04T10:56:26;5.63;;;3.67;;
8279;SDS011;8335;42.646;23.380;2022-08-04T10:58:59;5.63;;;3.75;;
8279;SDS011;8335;42.646;23.380;2022-08-04T11:01:30;6.90;;;4.15;;
8279;SDS011;8335;42.646;23.380;2022-08-04T11:04:03;3.63;;;3.22;;
8279;SDS011;8335;42.646;23.380;2022-08-04T11:06:33;4.22;;;2.60;;
8279;SDS011;8335;42.646;23.380;2022-08-04T11:09:02;4.40;;;3.40;;
8279;SDS011;8335;42.646;23.380;2022-08-04T11:11:30;3.03;;;2.70;;
8279;SDS011;8335;42.646;23.380;2022-08-04T11:14:03;5.22;;;3.00;;
8279;SDS011;8335;42.646;23.380;2022-08-04T11:16:35;3.42;;;2.75;;
8279;SDS011;8335;42.646;23.380;2022-08-04T11:19:09;3.22;;;2.90;;
8279;SDS011;8335;42.646;23.380;2022-08-04T11:21:46;4.50;;;2.67;;
8279;SDS011;8335;42.646;23.380;2022-08-04T11:24:22;3.55;;;3.03;;
8279;SDS011;8335;42.646;23.380;2022-08-04T11:26:57;5.47;;;3.00;;
8279;SDS011;8335;42.646;23.380;2022-08-04T11:29:28;6.20;;;2.80;;
8279;SDS011;8335;42.646;23.380;2022-08-04T11:32:01;4.38;;;3.08;;
8279;SDS011;8335;42.646;23.380;2022-08-04T11:34:32;6.63;;;3.80;;
8279;SDS011;8335;42.646;23.380;2022-08-04T11:37:02;5.13;;;2.67;;
8279;SDS011;8335;42.646;23.380;2022-08-04T11:39:34;4.70;;;2.72;;
8279;SDS011;8335;42.646;23.380;2022-08-04T11:42:05;5.38;;;2.78;;
8279;SDS011;8335;42.646;23.380;2022-08-04T11:44:40;4.80;;;2.30;;
8279;SDS011;8335;42.646;23.380;2022-08-04T11:47:17;2.70;;;2.50;;
8279;SDS011;8335;42.646;23.380;2022-08-04T11:49:51;4.55;;;3.17;;
8279;SDS011;8335;42.646;23.380;2022-08-04T11:52:21;7.13;;;2.80;;
8279;SDS011;8335;42.646;23.380;2022-08-04T11:54:49;5.20;;;2.88;;
8279;SDS011;8335;42.646;23.380;2022-08-04T11:57:16;3.63;;;2.65;;
8279;SDS011;8335;42.646;23.380;2022-08-04T11:59:43;5.90;;;2.90;;
8279;SDS011;8335;42.646;23.380;2022-08-04T12:02:18;3.45;;;2.78;;
8279;SDS011;8335;42.646;23.380;2022-08-04T12:05:06;5.00;;;3.20;;
8279;SDS011;8335;42.646;23.380;2022-08-04T12:07:40;3.03;;;2.67;;
8279;SDS011;8335;42.646;23.380;2022-08-04T12:10:17;3.35;;;2.80;;
8279;SDS011;8335;42.646;23.380;2022-08-04T12:12:54;5.22;;;3.15;;
8279;SDS011;8335;42.646;23.380;2022-08-04T12:15:29;3.33;;;2.88;;
8279;SDS011;8335;42.646;23.380;2022-08-04T12:18:03;3.17;;;2.72;;
8279;SDS011;8335;42.646;23.380;2022-08-04T12:20:40;4.80;;;3.03;;
8279;SDS011;8335;42.646;23.380;2022-08-04T12:23:14;5.75;;;2.55;;
8279;SDS011;8335;42.646;23.380;2022-08-04T12:25:47;3.00;;;2.70;;
8279;SDS011;8335;42.646;23.380;2022-08-04T12:28:15;3.03;;;2.83;;
8279;SDS011;8335;42.646;23.380;2022-08-04T12:30:49;6.20;;;3.00;;
8279;SDS011;8335;42.646;23.380;2022-08-04T12:33:22;3.22;;;2.92;;
8279;SDS011;8335;42.646;23.380;2022-08-04T12:35:57;3.47;;;2.65;;
8279;SDS011;8335;42.646;23.380;2022-08-04T12:38:26;3.50;;;2.95;;
8279;SDS011;8335;42.646;23.380;2022-08-04T12:40:58;4.07;;;3.13;;
8279;SDS011;8335;42.646;23.380;2022-08-04T12:43:28;4.35;;;2.95;;
8279;SDS011;8335;42.646;23.380;2022-08-04T12:46:04;3.20;;;2.53;;
8279;SDS011;8335;42.646;23.380;2022-08-04T12:48:34;3.60;;;2.70;;
8279;SDS011;8335;42.646;23.380;2022-08-04T12:51:06;3.28;;;2.75;;
8279;SDS011;8335;42.646;23.380;2022-08-04T12:53:36;3.65;;;2.95;;
8279;SDS011;8335;42.646;23.380;2022-08-04T12:56:04;3.38;;;2.80;;
8279;SDS011;8335;42.646;23.380;2022-08-04T12:58:35;3.63;;;3.08;;
8279;SDS011;8335;42.646;23.380;2022-08-04T13:01:05;2.97;;;2.65;;
8279;SDS011;8335;42.646;23.380;2022-08-04T13:03:35;3.65;;;2.60;;
8279;SDS011;8335;42.646;23.380;2022-08-04T13:06:05;2.95;;;2.60;;
8279;SDS011;8335;42.646;23.380;2022-08-04T13:08:34;3.20;;;2.90;;
8279;SDS011;8335;42.646;23.380;2022-08-04T13:11:03;3.55;;;3.05;;
8279;SDS011;8335;42.646;23.380;2022-08-04T13:13:33;3.08;;;2.70;;
8279;SDS011;8335;42.646;23.380;2022-08-04T13:16:02;2.80;;;2.60;;
8279;SDS011;8335;42.646;23.380;2022-08-04T13:18:31;2.80;;;2.60;;
8279;SDS011;8335;42.646;23.380;2022-08-04T13:21:10;3.45;;;2.90;;
8279;SDS011;8335;42.646;23.380;2022-08-04T13:23:39;5.47;;;3.13;;
8279;SDS011;8335;42.646;23.380;2022-08-04T13:26:09;4.75;;;3.08;;
8279;SDS011;8335;42.646;23.380;2022-08-04T13:28:37;3.85;;;3.10;;
8279;SDS011;8335;42.646;23.380;2022-08-04T13:31:06;4.30;;;3.20;;
8279;SDS011;8335;42.646;23.380;2022-08-04T13:33:38;5.50;;;3.35;;
8279;SDS011;8335;42.646;23.380;2022-08-04T13:36:08;3.45;;;3.15;;
8279;SDS011;8335;42.646;23.380;2022-08-04T13:38:37;5.10;;;3.10;;
8279;SDS011;8335;42.646;23.380;2022-08-04T13:41:06;3.30;;;2.85;;
8279;SDS011;8335;42.646;23.380;2022-08-04T13:43:39;3.60;;;3.08;;
8279;SDS011;8335;42.646;23.380;2022-08-04T13:46:08;3.75;;;3.00;;
8279;SDS011;8335;42.646;23.380;2022-08-04T13:48:39;3.28;;;2.90;;
8279;SDS011;8335;42.646;23.380;2022-08-04T13:51:10;3.70;;;3.00;;
8279;SDS011;8335;42.646;23.380;2022-08-04T13:53:38;6.65;;;2.90;;
8279;SDS011;8335;42.646;23.380;2022-08-04T13:56:06;3.40;;;3.10;;
8279;SDS011;8335;42.646;23.380;2022-08-04T13:58:38;5.30;;;3.10;;
8279;SDS011;8335;42.646;23.380;2022-08-04T14:01:08;3.30;;;3.00;;
8279;SDS011;8335;42.646;23.380;2022-08-04T14:03:39;3.67;;;2.97;;
8279;SDS011;8335;42.646;23.380;2022-08-04T14:06:16;4.28;;;3.10;;
8279;SDS011;8335;42.646;23.380;2022-08-04T14:08:46;3.83;;;3.47;;
8279;SDS011;8335;42.646;23.380;2022-08-04T14:11:15;4.80;;;3.30;;
8279;SDS011;8335;42.646;23.380;2022-08-04T14:13:43;4.63;;;3.10;;
8279;SDS011;8335;42.646;23.380;2022-08-04T14:16:14;3.20;;;2.88;;
8279;SDS011;8335;42.646;23.380;2022-08-04T14:18:42;3.28;;;3.00;;
8279;SDS011;8335;42.646;23.380;2022-08-04T14:21:09;3.10;;;2.90;;
8279;SDS011;8335;42.646;23.380;2022-08-04T14:23:40;5.18;;;3.38;;
8279;SDS011;8335;42.646;23.380;2022-08-04T14:29:07;3.05;;;2.83;;
8279;SDS011;8335;42.646;23.380;2022-08-04T14:31:35;3.38;;;3.08;;
8279;SDS011;8335;42.646;23.380;2022-08-04T14:34:02;6.25;;;3.10;;
8279;SDS011;8335;42.646;23.380;2022-08-04T14:36:37;4.70;;;2.97;;
8279;SDS011;8335;42.646;23.380;2022-08-04T14:39:06;6.57;;;2.95;;
8279;SDS011;8335;42.646;23.380;2022-08-04T14:41:43;4.03;;;3.15;;
8279;SDS011;8335;42.646;23.380;2022-08-04T14:44:10;4.13;;;3.10;;
8279;SDS011;8335;42.646;23.380;2022-08-04T14:46:47;3.70;;;3.03;;
8279;SDS011;8335;42.646;23.380;2022-08-04T14:49:15;5.07;;;3.40;;
8279;SDS011;8335;42.646;23.380;2022-08-04T14:51:43;5.72;;;3.80;;
8279;SDS011;8335;42.646;23.380;2022-08-04T14:54:13;3.90;;;3.30;;
8279;SDS011;8335;42.646;23.380;2022-08-04T14:56:41;4.45;;;3.20;;
8279;SDS011;8335;42.646;23.380;2022-08-04T14:59:17;4.00;;;3.38;;
8279;SDS011;8335;42.646;23.380;2022-08-04T15:01:44;3.20;;;3.00;;
8279;SDS011;8335;42.646;23.380;2022-08-04T15:04:11;5.97;;;3.42;;
8279;SDS011;8335;42.646;23.380;2022-08-04T15:06:39;4.78;;;3.38;;
8279;SDS011;8335;42.646;23.380;2022-08-04T15:09:07;3.08;;;2.88;;
8279;SDS011;8335;42.646;23.380;2022-08-04T15:11:37;2.95;;;2.70;;
8279;SDS011;8335;42.646;23.380;2022-08-04T15:14:04;5.95;;;3.35;;
8279;SDS011;8335;42.646;23.380;2022-08-04T15:16:32;3.67;;;3.38;;
8279;SDS011;8335;42.646;23.380;2022-08-04T15:18:59;3.17;;;2.97;;
8279;SDS011;8335;42.646;23.380;2022-08-04T15:21:27;5.30;;;3.10;;
8279;SDS011;8335;42.646;23.380;2022-08-04T15:23:55;4.22;;;3.30;;
8279;SDS011;8335;42.646;23.380;2022-08-04T15:26:24;3.55;;;3.25;;
8279;SDS011;8335;42.646;23.380;2022-08-04T15:28:57;3.90;;;3.30;;
8279;SDS011;8335;42.646;23.380;2022-08-04T15:31:35;4.53;;;3.03;;
8279;SDS011;8335;42.646;23.380;2022-08-04T15:34:04;6.20;;;3.30;;
8279;SDS011;8335;42.646;23.380;2022-08-04T15:36:33;3.67;;;3.05;;
8279;SDS011;8335;42.646;23.380;2022-08-04T15:39:05;4.53;;;3.53;;
8279;SDS011;8335;42.646;23.380;2022-08-04T15:41:43;5.20;;;3.53;;
8279;SDS011;8335;42.646;23.380;2022-08-04T15:44:34;4.20;;;3.55;;
8279;SDS011;8335;42.646;23.380;2022-08-04T15:47:17;5.65;;;3.75;;
8279;SDS011;8335;42.646;23.380;2022-08-04T15:49:44;4.07;;;3.65;;
8279;SDS011;8335;42.646;23.380;2022-08-04T15:52:12;4.97;;;3.58;;
8279;SDS011;8335;42.646;23.380;2022-08-04T15:54:41;5.53;;;3.45;;
8279;SDS011;8335;42.646;23.380;2022-08-04T15:57:08;6.35;;;4.07;;
8279;SDS011;8335;42.646;23.380;2022-08-04T16:02:36;4.85;;;4.00;;
8279;SDS011;8335;42.646;23.380;2022-08-04T16:05:27;6.60;;;4.50;;
8279;SDS011;8335;42.646;23.380;2022-08-04T16:08:07;7.00;;;4.45;;
8279;SDS011;8335;42.646;23.380;2022-08-04T16:10:37;8.05;;;4.45;;
8279;SDS011;8335;42.646;23.380;2022-08-04T16:13:06;7.95;;;4.20;;
8279;SDS011;8335;42.646;23.380;2022-08-04T16:15:38;6.32;;;4.35;;
8279;SDS011;8335;42.646;23.380;2022-08-04T16:18:08;6.90;;;4.65;;
8279;SDS011;8335;42.646;23.380;2022-08-04T16:20:36;7.60;;;4.57;;
8279;SDS011;8335;42.646;23.380;2022-08-04T16:23:13;9.10;;;5.00;;
8279;SDS011;8335;42.646;23.380;2022-08-04T16:26:00;6.95;;;4.07;;
8279;SDS011;8335;42.646;23.380;2022-08-04T16:28:37;8.57;;;4.05;;
8279;SDS011;8335;42.646;23.380;2022-08-04T16:31:07;5.13;;;3.72;;
8279;SDS011;8335;42.646;23.380;2022-08-04T16:33:35;6.00;;;3.40;;
8279;SDS011;8335;42.646;23.380;2022-08-04T16:36:04;5.07;;;3.17;;
8279;SDS011;8335;42.646;23.380;2022-08-04T16:38:32;4.45;;;3.58;;